Time;durP1;ratioP1;P1;durP2;ratioP2;P2;SDS_P1;SDS_P2;PMS_P1;PMS_P2;Temp;Humidity;BMP_temperature;BMP_pressure;BME280_temperature;BME280_humidity;BME280_pressure;Samples;Min_cycle;Max_cycle;Signal;HPM_P1;HPM_P2
2021/05/15 00:02:04;;;;;;;3.00;2.60;;;;;;;13.23;100.00;98211.44;1778980;79;21367;-66
2021/05/15 00:04:32;;;;;;;3.95;2.55;;;;;;;13.17;100.00;98206.34;1738146;81;20849;-66
2021/05/15 00:07:00;;;;;;;3.98;2.33;;;;;;;13.12;100.00;98211.34;1728172;81;20923;-63
2021/05/15 00:09:28;;;;;;;3.33;2.10;;;;;;;13.06;100.00;98213.72;1744371;80;21463;-64
2021/05/15 00:11:55;;;;;;;2.40;1.85;;;;;;;13.07;100.00;98219.88;1744243;81;21724;-65
2021/05/15 00:14:23;;;;;;;4.12;2.37;;;;;;;13.00;100.00;98216.55;1771263;81;20908;-65
2021/05/15 00:16:52;;;;;;;3.12;2.50;;;;;;;12.96;100.00;98218.89;1771266;81;20881;-65
2021/05/15 00:19:21;;;;;;;2.58;2.37;;;;;;;12.90;100.00;98213.78;1750109;81;20969;-66
2021/05/15 00:21:49;;;;;;;2.80;2.17;;;;;;;12.86;100.00;98216.11;1749671;81;20857;-65
2021/05/15 00:24:16;;;;;;;3.85;2.30;;;;;;;12.84;100.00;98209.54;1771284;81;21584;-65
2021/05/15 00:26:45;;;;;;;4.78;2.27;;;;;;;12.85;100.00;98206.44;1748621;81;21459;-65
2021/05/15 00:29:12;;;;;;;3.52;2.50;;;;;;;12.84;100.00;98204.70;1761655;81;20920;-65
2021/05/15 00:31:39;;;;;;;5.35;2.40;;;;;;;12.82;100.00;98204.75;1761680;81;20921;-66
2021/05/15 00:34:08;;;;;;;4.62;2.70;;;;;;;12.79;100.00;98203.97;1762858;80;20885;-66
2021/05/15 00:36:36;;;;;;;3.75;2.50;;;;;;;12.77;100.00;98205.77;1764399;80;21080;-66
2021/05/15 00:39:07;;;;;;;3.35;2.35;;;;;;;12.75;100.00;98212.88;1766913;81;20909;-66
2021/05/15 00:41:37;;;;;;;4.28;2.33;;;;;;;12.70;100.00;98210.37;1761667;81;20909;-65
2021/05/15 00:46:43;;;;;;;2.20;2.00;;;;;;;12.71;100.00;98220.05;1769612;80;21874;-65
2021/05/15 00:49:12;;;;;;;3.05;2.12;;;;;;;12.69;100.00;98211.29;1761658;81;21587;-65
2021/05/15 00:51:40;;;;;;;2.90;2.22;;;;;;;12.69;100.00;98216.58;1762115;81;20873;-65
2021/05/15 00:54:10;;;;;;;3.17;2.20;;;;;;;12.70;100.00;98218.31;1760628;81;20912;-65
2021/05/15 00:56:39;;;;;;;4.58;2.45;;;;;;;12.73;100.00;98226.62;1766357;81;20901;-64
2021/05/15 00:59:07;;;;;;;5.00;2.40;;;;;;;12.74;100.00;98236.30;1762296;81;20893;-63
2021/05/15 01:01:36;;;;;;;3.10;2.08;;;;;;;12.73;100.00;98233.23;1758089;81;21044;-63
2021/05/15 01:04:04;;;;;;;3.70;2.15;;;;;;;12.73;100.00;98229.27;1763316;81;20940;-65
2021/05/15 01:06:38;;;;;;;4.30;1.92;;;;;;;12.72;100.00;98228.85;1770904;81;20928;-65
2021/05/15 01:09:07;;;;;;;4.58;2.25;;;;;;;12.71;100.00;98234.60;1766417;81;20940;-65
2021/05/15 01:11:37;;;;;;;4.85;2.90;;;;;;;12.74;100.00;98234.97;1769171;81;20901;-65
2021/05/15 01:14:04;;;;;;;3.52;2.17;;;;;;;12.75;100.00;98230.95;1761432;81;21113;-65
2021/05/15 01:16:35;;;;;;;5.20;2.27;;;;;;;12.76;100.00;98233.14;1768341;81;20884;-63
2021/05/15 01:19:04;;;;;;;2.35;2.12;;;;;;;12.74;100.00;98234.97;1740197;82;20936;-65
2021/05/15 01:21:32;;;;;;;2.92;2.30;;;;;;;12.64;100.00;98231.72;1740264;82;20956;-63
2021/05/15 01:23:59;;;;;;;7.70;3.02;;;;;;;12.58;100.00;98233.22;1752545;81;20920;-63
2021/05/15 01:26:31;;;;;;;4.58;3.10;;;;;;;12.54;100.00;98232.91;1758519;80;21882;-63
2021/05/15 01:29:03;;;;;;;3.52;2.85;;;;;;;12.48;100.00;98240.56;1759815;81;24033;-65
2021/05/15 01:31:32;;;;;;;8.23;3.00;;;;;;;12.42;100.00;98236.77;1770941;81;21422;-65
2021/05/15 01:33:59;;;;;;;6.87;2.50;;;;;;;12.38;100.00;98251.44;1770782;81;20968;-65
2021/05/15 01:36:28;;;;;;;3.58;2.15;;;;;;;12.31;100.00;98249.88;1769658;81;20943;-63
2021/05/15 01:38:55;;;;;;;5.00;2.22;;;;;;;12.24;100.00;98250.01;1770774;81;21028;-63
2021/05/15 01:41:23;;;;;;;2.65;2.20;;;;;;;12.20;100.00;98247.48;1760192;81;20940;-62
2021/05/15 01:43:51;;;;;;;7.33;2.58;;;;;;;12.12;100.00;98250.80;1750135;81;21454;-63
2021/05/15 01:46:18;;;;;;;3.08;2.25;;;;;;;12.00;100.00;98255.08;1770735;81;20944;-63
2021/05/15 01:48:47;;;;;;;2.50;2.30;;;;;;;11.83;100.00;98259.48;1770793;81;20939;-62
2021/05/15 01:51:14;;;;;;;2.85;2.17;;;;;;;11.67;100.00;98266.86;1770776;81;21434;-63
2021/05/15 01:53:47;;;;;;;4.50;2.00;;;;;;;11.55;100.00;98274.62;1764245;81;20912;-65
2021/05/15 01:56:18;;;;;;;6.15;2.80;;;;;;;11.46;100.00;98271.34;1763463;80;20936;-65
2021/05/15 01:58:45;;;;;;;5.92;2.20;;;;;;;11.37;100.00;98279.48;1776830;80;21383;-63
2021/05/15 02:01:13;;;;;;;10.85;2.80;;;;;;;11.30;100.00;98280.91;1758188;80;20869;-62
2021/05/15 02:03:42;;;;;;;4.78;2.40;;;;;;;11.24;100.00;98271.81;1763066;80;21711;-65
2021/05/15 02:06:09;;;;;;;7.90;2.05;;;;;;;11.18;100.00;98277.68;1770755;81;20901;-63
2021/05/15 02:08:46;;;;;;;5.85;1.77;;;;;;;11.17;100.00;98278.13;1770711;81;21388;-64
2021/05/15 02:11:16;;;;;;;3.10;1.60;;;;;;;11.16;100.00;98279.03;1770821;81;21461;-62
2021/05/15 02:13:46;;;;;;;2.20;1.95;;;;;;;11.15;100.00;98277.30;1769286;81;20865;-64
2021/05/15 02:16:13;;;;;;;4.90;2.80;;;;;;;11.19;100.00;98287.34;1766206;80;21143;-63
2021/05/15 02:18:42;;;;;;;2.27;1.98;;;;;;;11.22;100.00;98280.22;1766008;80;20928;-64
2021/05/15 02:21:11;;;;;;;3.55;2.02;;;;;;;11.26;100.00;98282.33;1782112;79;21373;-63
2021/05/15 02:23:38;;;;;;;5.47;2.10;;;;;;;11.31;100.00;98282.64;1750740;81;20980;-65
2021/05/15 02:26:06;;;;;;;3.85;2.22;;;;;;;11.38;100.00;98283.86;1759980;81;20893;-65
2021/05/15 02:28:33;;;;;;;4.00;2.37;;;;;;;11.36;100.00;98287.85;1759973;81;21043;-65
2021/05/15 02:31:01;;;;;;;5.20;2.60;;;;;;;11.34;100.00;98281.25;1756284;81;21500;-65
2021/05/15 02:33:29;;;;;;;4.08;2.52;;;;;;;11.29;100.00;98285.77;1742423;82;20965;-65
2021/05/15 02:35:56;;;;;;;5.25;2.35;;;;;;;11.26;100.00;98291.13;1742356;81;20969;-64
2021/05/15 02:38:24;;;;;;;2.65;2.15;;;;;;;11.24;100.00;98290.29;1742354;82;20941;-63
2021/05/15 02:40:56;;;;;;;5.50;2.77;;;;;;;11.22;100.00;98284.17;1742378;82;21067;-66
2021/05/15 02:43:24;;;;;;;7.95;2.60;;;;;;;11.26;100.00;98282.33;1746664;80;20957;-63
2021/05/15 02:45:52;;;;;;;4.83;2.33;;;;;;;11.23;100.00;98287.23;1747329;82;20890;-66
2021/05/15 02:48:20;;;;;;;3.20;2.40;;;;;;;11.24;100.00;98286.78;1747399;80;20897;-64
2021/05/15 02:50:50;;;;;;;3.52;2.35;;;;;;;11.27;100.00;98295.95;1784365;80;20897;-65
2021/05/15 02:53:18;;;;;;;4.55;2.50;;;;;;;11.28;100.00;98295.05;1789995;79;21086;-64
2021/05/15 02:55:47;;;;;;;4.45;2.67;;;;;;;11.33;100.00;98304.59;1789983;79;20857;-65
2021/05/15 02:58:16;;;;;;;3.72;2.67;;;;;;;11.37;100.00;98305.89;1790104;79;20908;-63
2021/05/15 03:00:44;;;;;;;3.47;2.65;;;;;;;11.38;100.00;98308.94;1756232;80;20929;-63
2021/05/15 03:03:12;;;;;;;2.83;2.22;;;;;;;11.38;100.00;98315.09;1758032;81;20893;-63
2021/05/15 03:05:39;;;;;;;3.62;2.58;;;;;;;11.38;100.00;98320.38;1757452;81;21443;-64
2021/05/15 03:08:08;;;;;;;2.90;2.60;;;;;;;11.34;100.00;98315.58;1755567;81;20932;-63
2021/05/15 03:10:37;;;;;;;5.83;2.85;;;;;;;11.33;100.00;98315.61;1757808;81;20885;-63
2021/05/15 03:13:05;;;;;;;3.22;2.80;;;;;;;11.31;100.00;98313.01;1770785;81;21471;-63
2021/05/15 03:15:33;;;;;;;3.95;2.80;;;;;;;11.33;100.00;98313.84;1770770;81;20880;-65
2021/05/15 03:18:04;;;;;;;2.83;2.27;;;;;;;11.34;100.00;98306.79;1770743;81;21532;-63
2021/05/15 03:20:32;;;;;;;4.05;2.30;;;;;;;11.40;100.00;98309.33;1768220;81;20877;-65
2021/05/15 03:23:00;;;;;;;6.85;1.45;;;;;;;11.46;100.00;98314.47;1758227;81;20968;-63
2021/05/15 03:25:27;;;;;;;1.40;1.30;;;;;;;11.51;100.00;98320.96;1758219;81;21044;-63
2021/05/15 03:27:54;;;;;;;4.58;1.20;;;;;;;11.55;100.00;98323.95;1758249;81;20929;-63
2021/05/15 03:30:22;;;;;;;1.30;1.20;;;;;;;11.58;100.00;98327.38;1756559;81;20964;-62
2021/05/15 03:32:50;;;;;;;2.62;1.20;;;;;;;11.65;100.00;98335.58;1755710;81;20881;-62
2021/05/15 03:35:19;;;;;;;3.98;2.00;;;;;;;11.73;100.00;98339.81;1754871;81;20929;-62
2021/05/15 03:37:47;;;;;;;3.80;2.20;;;;;;;11.80;100.00;98339.66;1740376;81;20984;-63
2021/05/15 03:40:14;;;;;;;4.58;2.70;;;;;;;11.83;100.00;98334.34;1740364;81;20925;-63
2021/05/15 03:42:43;;;;;;;4.17;2.83;;;;;;;11.87;100.00;98336.45;1740263;81;20912;-62
2021/05/15 03:45:11;;;;;;;3.87;2.75;;;;;;;11.89;100.00;98343.89;1740308;81;20940;-63
2021/05/15 03:47:39;;;;;;;4.37;3.55;;;;;;;11.91;100.00;98347.36;1764561;80;20869;-62
2021/05/15 03:50:07;;;;;;;5.72;4.05;;;;;;;11.95;100.00;98348.57;1766338;81;21497;-63
2021/05/15 03:52:35;;;;;;;5.22;4.20;;;;;;;12.00;100.00;98345.81;1782156;80;20979;-63
2021/05/15 03:55:03;;;;;;;6.17;4.35;;;;;;;12.06;100.00;98339.05;1750181;81;21066;-62
2021/05/15 03:57:30;;;;;;;5.15;3.60;;;;;;;12.12;100.00;98345.97;1769499;80;20912;-62
2021/05/15 03:59:57;;;;;;;5.37;3.17;;;;;;;12.18;100.00;98347.13;1758644;81;20890;-63
2021/05/15 04:02:25;;;;;;;4.17;3.15;;;;;;;12.24;100.00;98352.27;1758702;81;20905;-62
2021/05/15 04:04:52;;;;;;;3.92;3.15;;;;;;;12.33;100.00;98359.12;1757025;80;20909;-62
2021/05/15 04:07:21;;;;;;;6.42;3.00;;;;;;;12.39;100.00;98358.51;1752922;80;21032;-63
2021/05/15 04:09:49;;;;;;;5.65;2.90;;;;;;;12.46;100.00;98361.86;1752774;80;20866;-62
2021/05/15 04:12:16;;;;;;;3.55;2.67;;;;;;;12.53;100.00;98367.41;1752847;80;20893;-62
2021/05/15 04:14:48;;;;;;;6.70;2.75;;;;;;;12.63;100.00;98366.25;1768440;80;20904;-63
2021/05/15 04:17:28;;;;;;;2.65;2.45;;;;;;;12.73;100.00;98361.58;1789868;79;21387;-64
2021/05/15 04:19:43;;;;;;;4.00;2.90;;;;;;;12.83;100.00;98366.61;1785773;79;21942;-63
2021/05/15 04:22:10;;;;;;;5.22;2.70;;;;;;;12.92;100.00;98365.48;1787274;79;20885;-63
2021/05/15 04:24:37;;;;;;;3.50;2.67;;;;;;;13.03;100.00;98362.07;1787288;80;20961;-62
2021/05/15 04:27:05;;;;;;;3.17;2.37;;;;;;;13.16;100.00;98367.42;1789612;79;21020;-62
2021/05/15 04:29:33;;;;;;;5.53;2.52;;;;;;;13.33;100.00;98366.12;1789933;79;20952;-63
2021/05/15 04:32:00;;;;;;;4.20;2.60;;;;;;;13.49;100.00;98368.73;1789853;80;21032;-63
2021/05/15 04:34:30;;;;;;;3.40;2.80;;;;;;;13.68;100.00;98375.66;1789870;79;20928;-62
2021/05/15 04:36:58;;;;;;;3.50;2.65;;;;;;;13.87;100.00;98376.84;1787332;79;20916;-63
2021/05/15 04:39:28;;;;;;;2.65;2.35;;;;;;;14.06;100.00;98371.81;1789018;79;20956;-63
2021/05/15 04:41:56;;;;;;;2.45;2.10;;;;;;;14.25;100.00;98376.09;1789991;79;20924;-63
2021/05/15 04:44:24;;;;;;;4.78;2.35;;;;;;;14.44;100.00;98375.45;1790027;79;21669;-63
2021/05/15 04:46:51;;;;;;;6.25;2.67;;;;;;;14.62;100.00;98377.93;1761016;80;20928;-64
2021/05/15 04:49:19;;;;;;;4.45;2.40;;;;;;;14.75;100.00;98377.07;1758770;80;21428;-63
2021/05/15 04:51:46;;;;;;;2.50;2.20;;;;;;;14.83;100.00;98378.13;1745505;80;20957;-63
2021/05/15 04:54:13;;;;;;;3.33;2.25;;;;;;;14.92;100.00;98374.68;1731333;82;20958;-63
2021/05/15 04:56:41;;;;;;;2.90;2.40;;;;;;;15.02;100.00;98379.20;1760671;79;21717;-63
2021/05/15 04:59:08;;;;;;;3.47;2.20;;;;;;;15.03;100.00;98380.47;1764049;81;20999;-63
2021/05/15 05:01:36;;;;;;;6.25;2.85;;;;;;;15.08;100.00;98379.84;1764320;80;20889;-62
2021/05/15 05:04:08;;;;;;;3.42;2.40;;;;;;;15.12;100.00;98380.59;1764045;81;20925;-64
2021/05/15 05:06:34;;;;;;;2.25;2.05;;;;;;;15.19;100.00;98387.91;1719188;83;20877;-64
2021/05/15 05:09:01;;;;;;;2.55;2.10;;;;;;;15.22;100.00;98383.81;1749069;82;21483;-64
2021/05/15 05:11:29;;;;;;;3.25;2.50;;;;;;;15.27;100.00;98384.51;1733675;82;20921;-64
2021/05/15 05:13:57;;;;;;;3.30;2.40;;;;;;;15.33;100.00;98382.48;1726442;81;20894;-64
2021/05/15 05:16:24;;;;;;;3.05;2.42;;;;;;;15.36;100.00;98393.47;1747179;81;20914;-64
2021/05/15 05:18:51;;;;;;;2.98;2.35;;;;;;;15.38;100.00;98398.26;1756600;81;20920;-64
2021/05/15 05:21:19;;;;;;;2.37;2.17;;;;;;;15.38;100.00;98401.78;1750438;81;21055;-66
2021/05/15 05:23:47;;;;;;;2.87;2.37;;;;;;;15.41;100.00;98403.45;1752457;81;20882;-63
2021/05/15 05:26:14;;;;;;;2.90;2.40;;;;;;;15.42;100.00;98396.76;1756429;81;20884;-64
2021/05/15 05:28:50;;;;;;;2.95;2.52;;;;;;;15.44;100.00;98404.67;1752480;81;21628;-64
2021/05/15 05:31:16;;;;;;;3.00;2.45;;;;;;;15.49;100.00;98409.35;1763009;80;20911;-64
2021/05/15 05:33:45;;;;;;;5.95;2.60;;;;;;;15.63;100.00;98406.23;1762307;81;21036;-64
2021/05/15 05:36:12;;;;;;;5.45;2.52;;;;;;;15.77;100.00;98413.68;1751088;81;20980;-63
2021/05/15 05:38:41;;;;;;;3.95;2.17;;;;;;;15.87;100.00;98417.71;1764238;81;20862;-67
2021/05/15 05:41:08;;;;;;;5.67;2.50;;;;;;;15.91;100.00;98413.54;1766672;80;20972;-63
2021/05/15 05:43:36;;;;;;;2.75;1.98;;;;;;;16.00;100.00;98420.29;1767375;80;20905;-63
2021/05/15 05:46:04;;;;;;;5.75;1.95;;;;;;;16.09;100.00;98416.43;1779939;79;21034;-64
2021/05/15 05:48:31;;;;;;;2.22;1.80;;;;;;;16.25;100.00;98422.87;1763933;81;20944;-64
2021/05/15 05:51:00;;;;;;;2.10;1.90;;;;;;;16.35;100.00;98418.44;1779528;79;20894;-62
2021/05/15 05:53:27;;;;;;;3.70;1.87;;;;;;;16.42;100.00;98420.38;1754544;79;20952;-62
2021/05/15 05:55:55;;;;;;;2.70;1.80;;;;;;;16.43;100.00;98418.12;1782095;79;20942;-63
2021/05/15 05:58:22;;;;;;;2.87;1.70;;;;;;;16.49;100.00;98412.53;1750128;82;21047;-63
2021/05/15 06:00:50;;;;;;;3.33;1.52;;;;;;;16.60;100.00;98417.45;1770899;80;20913;-64
2021/05/15 06:03:17;;;;;;;2.05;1.70;;;;;;;16.67;100.00;98418.95;1756146;80;20957;-68
2021/05/15 06:05:44;;;;;;;5.30;2.00;;;;;;;16.75;100.00;98423.48;1753458;80;21079;-68
2021/05/15 06:08:12;;;;;;;3.08;1.90;;;;;;;16.79;100.00;98433.08;1753531;81;20901;-68
2021/05/15 06:10:39;;;;;;;3.17;2.22;;;;;;;16.80;100.00;98432.15;1767150;79;21057;-62
2021/05/15 06:13:08;;;;;;;5.17;2.15;;;;;;;16.81;100.00;98437.00;1790064;79;20912;-61
2021/05/15 06:15:42;;;;;;;4.60;3.22;;;;;;;16.85;100.00;98436.81;1790079;80;20928;-63
2021/05/15 06:18:07;;;;;;;4.53;2.50;;;;;;;16.87;100.00;98434.08;1789246;79;20911;-61
2021/05/15 06:20:34;;;;;;;4.92;2.27;;;;;;;16.92;100.00;98438.28;1754314;80;21446;-61
2021/05/15 06:23:02;;;;;;;3.20;2.40;;;;;;;16.97;100.00;98439.41;1752983;80;21000;-61
2021/05/15 06:25:29;;;;;;;4.17;2.50;;;;;;;17.00;100.00;98432.62;1752687;80;20929;-61
2021/05/15 06:27:56;;;;;;;6.70;2.98;;;;;;;17.05;100.00;98427.98;1752767;80;20897;-62
2021/05/15 06:30:24;;;;;;;5.65;2.60;;;;;;;17.14;100.00;98426.72;1780551;80;20972;-61
2021/05/15 06:32:52;;;;;;;4.33;2.25;;;;;;;17.20;100.00;98425.11;1789646;80;20904;-70
2021/05/15 06:35:19;;;;;;;3.17;2.33;;;;;;;17.28;100.00;98426.50;1789820;79;21051;-61
2021/05/15 06:37:47;;;;;;;3.20;1.92;;;;;;;17.41;100.00;98429.48;1789760;79;21534;-61
2021/05/15 06:40:14;;;;;;;1.92;1.72;;;;;;;17.51;100.00;98429.49;1780959;79;20893;-62
2021/05/15 06:42:41;;;;;;;3.20;1.77;;;;;;;17.61;100.00;98428.14;1789814;80;20936;-62
2021/05/15 06:45:09;;;;;;;4.30;1.52;;;;;;;17.66;100.00;98426.59;1789851;80;20873;-61
2021/05/15 06:47:36;;;;;;;3.72;1.70;;;;;;;17.73;100.00;98433.88;1790259;79;21272;-73
2021/05/15 06:50:05;;;;;;;9.38;2.00;;;;;;;17.82;100.00;98434.77;1790382;79;21490;-72
2021/05/15 06:52:32;;;;;;;4.37;1.87;;;;;;;17.96;100.00;98434.98;1790666;79;20932;-72
2021/05/15 06:54:59;;;;;;;3.60;1.70;;;;;;;18.03;100.00;98439.13;1790535;79;21395;-73
2021/05/15 06:57:27;;;;;;;2.08;1.90;;;;;;;18.15;100.00;98447.02;1786149;79;20957;-73
2021/05/15 06:59:55;;;;;;;1.92;1.52;;;;;;;18.28;100.00;98444.63;1753619;80;21064;-72
2021/05/15 07:02:22;;;;;;;3.70;1.60;;;;;;;18.28;100.00;98444.63;1755676;80;20949;-74
2021/05/15 07:04:52;;;;;;;2.80;1.77;;;;;;;18.37;100.00;98449.05;1759259;81;20849;-76
2021/05/15 07:07:21;;;;;;;3.70;2.00;;;;;;;18.48;100.00;98442.73;1782848;79;20944;-66
2021/05/15 07:09:50;;;;;;;3.35;1.75;;;;;;;18.62;100.00;98443.42;1764737;80;20905;-70
2021/05/15 07:12:18;;;;;;;3.95;2.02;;;;;;;18.70;100.00;98446.58;1753720;81;21408;-68
2021/05/15 07:14:46;;;;;;;6.42;1.98;;;;;;;18.77;100.00;98449.80;1754812;81;20921;-72
2021/05/15 07:17:13;;;;;;;2.37;1.50;;;;;;;18.76;100.00;98454.28;1745857;82;20913;-67
2021/05/15 07:19:40;;;;;;;4.30;1.80;;;;;;;18.75;100.00;98455.22;1745691;82;21459;-66
2021/05/15 07:22:07;;;;;;;1.82;1.65;;;;;;;18.76;100.00;98456.95;1745814;82;20874;-67
2021/05/15 07:24:34;;;;;;;2.25;1.42;;;;;;;18.83;100.00;98456.17;1745665;82;21060;-65
2021/05/15 07:27:01;;;;;;;3.35;1.07;;;;;;;18.95;100.00;98461.40;1741017;81;20886;-71
2021/05/15 07:29:29;;;;;;;4.50;1.82;;;;;;;19.01;100.00;98459.27;1727065;82;20925;-69
2021/05/15 07:31:56;;;;;;;1.57;1.35;;;;;;;19.11;100.00;98459.67;1724432;83;21028;-70
2021/05/15 07:34:23;;;;;;;2.98;1.30;;;;;;;19.20;100.00;98460.52;1742777;82;20960;-70
2021/05/15 07:36:51;;;;;;;1.02;0.82;;;;;;;19.28;100.00;98461.46;1743091;81;21089;-70
2021/05/15 07:39:20;;;;;;;1.27;1.10;;;;;;;19.35;100.00;98463.73;1743130;82;21400;-68
2021/05/15 07:41:47;;;;;;;2.05;1.10;;;;;;;19.41;100.00;98462.11;1743151;81;20901;-72
2021/05/15 07:44:14;;;;;;;1.92;1.20;;;;;;;19.50;100.00;98464.30;1743016;81;21456;-67
2021/05/15 07:46:41;;;;;;;1.92;1.12;;;;;;;19.64;100.00;98464.06;1750728;82;20925;-68
2021/05/15 07:49:09;;;;;;;1.40;1.20;;;;;;;19.77;100.00;98467.80;1757015;81;21000;-67
2021/05/15 07:51:37;;;;;;;2.00;1.00;;;;;;;19.90;100.00;98464.88;1749328;81;20914;-67
2021/05/15 07:54:05;;;;;;;1.50;1.37;;;;;;;20.02;100.00;98462.86;1755629;81;20968;-67
2021/05/15 07:56:32;;;;;;;1.95;1.40;;;;;;;20.08;100.00;98463.00;1760046;81;20923;-67
2021/05/15 07:59:01;;;;;;;3.12;1.10;;;;;;;20.13;100.00;98467.63;1758998;81;20915;-68
2021/05/15 08:01:29;;;;;;;3.05;1.50;;;;;;;20.24;100.00;98467.02;1754836;81;21074;-68
2021/05/15 08:03:56;;;;;;;1.37;1.10;;;;;;;20.28;100.00;98464.56;1755579;81;21012;-66
2021/05/15 08:06:25;;;;;;;2.22;0.80;;;;;;;20.32;100.00;98472.81;1746245;82;21024;-68
2021/05/15 08:08:53;;;;;;;1.45;0.80;;;;;;;20.32;100.00;98470.13;1754470;81;20965;-69
2021/05/15 08:11:21;;;;;;;3.42;0.70;;;;;;;20.34;100.00;98469.13;1786072;80;20900;-65
2021/05/15 08:13:49;;;;;;;5.45;1.70;;;;;;;20.37;100.00;98466.75;1777000;80;21056;-65
2021/05/15 08:16:17;;;;;;;2.50;1.02;;;;;;;20.33;99.55;98468.70;1770942;81;20912;-65
2021/05/15 08:18:44;;;;;;;1.22;1.12;;;;;;;20.23;98.84;98470.17;1770614;81;21399;-65
2021/05/15 08:21:12;;;;;;;4.35;1.00;;;;;;;20.19;97.58;98467.75;1770604;81;20972;-64
2021/05/15 08:23:40;;;;;;;1.52;1.20;;;;;;;20.22;99.29;98464.91;1770063;81;20927;-65
2021/05/15 08:26:10;;;;;;;1.92;0.80;;;;;;;20.27;100.00;98466.38;1770919;81;21041;-70
2021/05/15 08:28:41;;;;;;;2.70;0.78;;;;;;;20.45;100.00;98469.03;1771117;81;20876;-69
2021/05/15 08:31:08;;;;;;;4.97;0.80;;;;;;;20.64;100.00;98469.22;1771543;81;20908;-70
2021/05/15 08:33:36;;;;;;;2.87;0.82;;;;;;;20.85;100.00;98469.81;1771722;81;20928;-71
2021/05/15 08:36:05;;;;;;;6.05;1.00;;;;;;;21.02;99.41;98467.48;1771293;81;20948;-70
2021/05/15 08:38:33;;;;;;;3.10;0.90;;;;;;;21.16;95.34;98463.50;1771364;81;21079;-70
2021/05/15 08:41:00;;;;;;;1.20;1.00;;;;;;;21.25;93.74;98467.00;1771407;81;20971;-71
2021/05/15 08:43:27;;;;;;;1.87;0.80;;;;;;;21.37;92.86;98454.70;1771530;81;21426;-70
2021/05/15 08:45:58;;;;;;;0.53;0.50;;;;;;;21.51;93.56;98456.53;1771441;81;20921;-71
2021/05/15 08:48:25;;;;;;;1.87;0.80;;;;;;;21.72;93.84;98459.23;1771527;81;21443;-70
2021/05/15 08:50:53;;;;;;;2.55;0.50;;;;;;;21.90;90.74;98454.08;1771536;81;20984;-71
2021/05/15 08:53:20;;;;;;;0.68;0.50;;;;;;;22.00;87.55;98455.22;1771364;81;20897;-71
2021/05/15 08:55:47;;;;;;;0.95;0.60;;;;;;;22.13;86.45;98455.81;1771549;81;20896;-70
2021/05/15 08:58:16;;;;;;;4.17;0.60;;;;;;;22.21;82.82;98454.35;1771348;81;21458;-70
2021/05/15 09:00:44;;;;;;;0.68;0.42;;;;;;;22.23;79.15;98451.13;1771305;81;20936;-71
2021/05/15 09:03:13;;;;;;;2.60;0.60;;;;;;;22.23;78.28;98447.54;1771221;81;21097;-70
2021/05/15 09:05:44;;;;;;;1.95;0.70;;;;;;;22.21;77.63;98450.80;1771112;81;21430;-68
2021/05/15 09:08:11;;;;;;;0.75;0.60;;;;;;;22.15;76.03;98452.06;1771115;81;21423;-71
2021/05/15 09:10:41;;;;;;;0.95;0.70;;;;;;;22.09;75.68;98452.45;1771207;81;20924;-72
2021/05/15 09:13:11;;;;;;;0.93;0.60;;;;;;;22.00;75.99;98445.81;1771257;81;20876;-72
2021/05/15 09:15:43;;;;;;;1.00;0.50;;;;;;;21.94;75.93;98451.58;1771227;81;20889;-73
2021/05/15 09:18:12;;;;;;;1.62;0.70;;;;;;;21.88;75.12;98457.34;1770625;81;20900;-72
2021/05/15 09:20:41;;;;;;;0.95;0.60;;;;;;;21.82;73.43;98459.55;1771576;81;21534;-72
2021/05/15 09:23:15;;;;;;;8.98;3.05;;;;;;;21.75;72.76;98455.48;1771451;81;20915;-72
2021/05/15 09:25:44;;;;;;;4.33;1.00;;;;;;;21.67;72.74;98459.99;1771420;81;20885;-73
2021/05/15 09:28:11;;;;;;;2.35;0.85;;;;;;;21.59;73.40;98455.58;1771409;81;20988;-73
2021/05/15 09:30:39;;;;;;;0.88;0.50;;;;;;;21.50;74.90;98465.06;1743590;81;20892;-73
2021/05/15 09:33:14;;;;;;;1.65;0.60;;;;;;;21.45;75.39;98459.11;1770219;81;21462;-73
2021/05/15 09:35:42;;;;;;;0.50;0.33;;;;;;;21.41;74.40;98462.94;1753394;81;20958;-71
2021/05/15 09:38:10;;;;;;;4.65;0.70;;;;;;;21.32;73.06;98471.55;1790674;80;20896;-75
2021/05/15 09:40:40;;;;;;;0.78;0.60;;;;;;;21.20;73.93;98471.75;1747715;80;21056;-72
2021/05/15 09:43:09;;;;;;;0.90;0.60;;;;;;;21.17;75.16;98467.91;1755537;81;21012;-71
2021/05/15 09:45:37;;;;;;;1.22;0.50;;;;;;;21.17;75.38;98465.23;1755334;81;20917;-72
2021/05/15 09:48:09;;;;;;;1.47;0.50;;;;;;;21.17;73.50;98461.68;1752738;81;20989;-71
2021/05/15 09:50:40;;;;;;;3.98;0.50;;;;;;;21.12;73.15;98465.12;1765321;81;21462;-73
2021/05/15 09:53:15;;;;;;;0.85;0.57;;;;;;;21.09;74.68;98466.64;1744676;81;21617;-71
2021/05/15 09:55:46;;;;;;;0.30;0.30;;;;;;;21.13;76.20;98465.50;1761177;81;20861;-74
2021/05/15 09:58:16;;;;;;;0.40;0.30;;;;;;;21.18;76.39;98463.41;1730644;82;20941;-73
2021/05/15 10:00:50;;;;;;;1.12;0.40;;;;;;;21.23;74.49;98467.58;1739695;81;20933;-72
2021/05/15 10:03:25;;;;;;;0.30;0.30;;;;;;;21.23;72.99;98467.58;1750929;81;20913;-73
2021/05/15 10:06:13;;;;;;;0.53;0.30;;;;;;;21.24;72.22;98471.12;1752814;81;21455;-63
2021/05/15 10:08:41;;;;;;;2.08;0.50;;;;;;;21.19;70.35;98468.67;1752304;81;21519;-64
2021/05/15 10:11:10;;;;;;;0.70;0.42;;;;;;;21.16;70.37;98472.89;1756715;80;20920;-63
2021/05/15 10:13:44;;;;;;;0.45;0.40;;;;;;;21.19;71.01;98467.81;1756742;80;21489;-63
2021/05/15 10:16:09;;;;;;;5.17;1.00;;;;;;;21.26;72.25;98466.05;1756001;81;20950;-64
2021/05/15 10:18:37;;;;;;;0.85;0.55;;;;;;;21.30;71.66;98469.44;1757220;81;21183;-64
2021/05/15 10:21:05;;;;;;;1.30;0.50;;;;;;;21.31;71.88;98462.64;1757947;80;21410;-63
2021/05/15 10:23:38;;;;;;;0.78;0.70;;;;;;;21.37;72.92;98462.74;1737027;80;20901;-63
2021/05/15 10:26:08;;;;;;;14.70;1.30;;;;;;;21.49;72.34;98455.77;1751162;81;20965;-63
2021/05/15 10:28:38;;;;;;;4.90;0.65;;;;;;;21.61;72.36;98463.06;1753249;81;21452;-64
2021/05/15 10:31:15;;;;;;;3.27;0.50;;;;;;;21.63;71.44;98459.32;1749125;81;21062;-64
2021/05/15 10:33:50;;;;;;;0.55;0.50;;;;;;;21.61;70.03;98468.42;1751913;81;20992;-71
2021/05/15 10:36:22;;;;;;;3.02;0.40;;;;;;;21.48;68.01;98458.92;1735871;81;20873;-71
2021/05/15 10:40:51;;;;;;;1.17;0.40;;;;;;;21.48;69.35;98455.38;1792761;78;22743;-71
2021/05/15 10:43:35;;;;;;;11.78;0.62;;;;;;;21.45;70.05;98456.43;1760727;81;20890;-72
2021/05/15 10:46:29;;;;;;;1.75;0.40;;;;;;;21.54;71.50;98453.66;1757960;81;21111;-69
2021/05/15 10:49:06;;;;;;;2.10;0.40;;;;;;;21.62;72.64;98452.70;1753415;81;20994;-69
2021/05/15 10:51:47;;;;;;;1.25;0.40;;;;;;;21.82;73.53;98452.36;1751406;81;20930;-70
2021/05/15 10:54:17;;;;;;;0.30;0.20;;;;;;;21.99;71.38;98450.80;1747122;81;20978;-70
2021/05/15 10:56:49;;;;;;;0.85;0.40;;;;;;;22.17;69.31;98460.02;1749901;81;21917;-71
2021/05/15 10:59:20;;;;;;;0.90;0.60;;;;;;;22.23;66.55;98459.63;1746099;81;21097;-71
2021/05/15 11:01:54;;;;;;;6.05;0.57;;;;;;;22.18;66.85;98468.47;1713297;82;20908;-71
2021/05/15 11:04:27;;;;;;;0.57;0.30;;;;;;;22.16;67.14;98455.61;1714522;82;21056;-71
2021/05/15 11:07:10;;;;;;;2.17;0.60;;;;;;;22.20;67.22;98455.80;1726351;82;20965;-70
2021/05/15 11:09:41;;;;;;;1.95;0.35;;;;;;;22.25;66.97;98460.42;1714298;82;21044;-71
2021/05/15 11:12:15;;;;;;;1.85;0.40;;;;;;;22.17;65.65;98456.86;1696394;82;21337;-70
2021/05/15 11:14:48;;;;;;;2.55;0.30;;;;;;;22.14;70.11;98454.84;1718288;82;21060;-69
2021/05/15 11:17:26;;;;;;;5.30;0.57;;;;;;;22.20;68.27;98454.45;1717195;82;21020;-70
2021/05/15 11:20:07;;;;;;;1.75;0.30;;;;;;;22.32;70.11;98460.41;1726849;82;20988;-70
2021/05/15 11:22:44;;;;;;;6.33;0.50;;;;;;;22.54;68.43;98454.49;1716368;81;21000;-68
2021/05/15 11:25:24;;;;;;;1.05;0.40;;;;;;;22.73;65.08;98445.63;1718800;81;21424;-70
2021/05/15 11:28:03;;;;;;;0.75;0.30;;;;;;;22.91;63.01;98443.55;1739114;81;20932;-70
2021/05/15 11:30:43;;;;;;;0.65;0.57;;;;;;;23.12;60.99;98453.34;1736102;81;20951;-74
2021/05/15 11:33:13;;;;;;;0.42;0.30;;;;;;;23.28;59.62;98449.14;1714814;81;21015;-74
2021/05/15 11:35:43;;;;;;;0.35;0.25;;;;;;;23.33;57.14;98453.23;1722321;82;21059;-75
2021/05/15 11:38:18;;;;;;;3.22;0.35;;;;;;;23.29;56.33;98453.56;1718145;82;21098;-75
2021/05/15 11:40:51;;;;;;;1.65;0.53;;;;;;;23.14;56.54;98446.02;1730840;81;21043;-75